sensor_id;sensor_type;location;lat;lon;timestamp;pressure;altitude;pressure_sealevel;temperature;humidity
64141;BME280;50436;50.618;7.932;2022-07-29T00:01:19;96510.72;;;18.43;75.65
64141;BME280;50436;50.618;7.932;2022-07-29T00:03:44;96508.56;;;18.45;75.12
64141;BME280;50436;50.618;7.932;2022-07-29T00:06:09;96513.25;;;18.39;74.48
64141;BME280;50436;50.618;7.932;2022-07-29T00:08:35;96511.53;;;18.43;73.60
64141;BME280;50436;50.618;7.932;2022-07-29T00:11:00;96501.91;;;18.37;75.32
64141;BME280;50436;50.618;7.932;2022-07-29T00:13:28;96509.13;;;18.42;74.75
64141;BME280;50436;50.618;7.932;2022-07-29T00:15:54;96510.03;;;18.37;75.23
64141;BME280;50436;50.618;7.932;2022-07-29T00:18:19;96503.41;;;18.43;74.22
64141;BME280;50436;50.618;7.932;2022-07-29T00:20:45;96501.50;;;18.44;73.31
64141;BME280;50436;50.618;7.932;2022-07-29T00:23:10;96506.22;;;18.38;73.40
64141;BME280;50436;50.618;7.932;2022-07-29T00:25:36;96501.69;;;18.33;73.75
64141;BME280;50436;50.618;7.932;2022-07-29T00:28:02;96504.19;;;18.30;74.42
64141;BME280;50436;50.618;7.932;2022-07-29T00:30:29;96513.50;;;18.24;73.57
64141;BME280;50436;50.618;7.932;2022-07-29T00:32:55;96510.28;;;18.22;74.95
64141;BME280;50436;50.618;7.932;2022-07-29T00:35:20;96514.47;;;18.14;75.54
64141;BME280;50436;50.618;7.932;2022-07-29T00:38:04;96501.44;;;18.16;74.95
64141;BME280;50436;50.618;7.932;2022-07-29T00:40:30;96506.06;;;18.16;74.75
64141;BME280;50436;50.618;7.932;2022-07-29T00:42:55;96499.03;;;18.15;75.00
64141;BME280;50436;50.618;7.932;2022-07-29T00:45:21;96496.09;;;18.11;74.95
64141;BME280;50436;50.618;7.932;2022-07-29T00:47:47;96489.06;;;18.10;74.26
64141;BME280;50436;50.618;7.932;2022-07-29T00:50:13;96496.38;;;18.09;74.46
64141;BME280;50436;50.618;7.932;2022-07-29T00:52:40;96493.25;;;18.02;74.76
64141;BME280;50436;50.618;7.932;2022-07-29T00:55:08;96495.09;;;18.07;75.90
64141;BME280;50436;50.618;7.932;2022-07-29T00:57:34;96485.19;;;17.97;73.86
64141;BME280;50436;50.618;7.932;2022-07-29T01:00:00;96489.09;;;17.91;75.42
64141;BME280;50436;50.618;7.932;2022-07-29T01:02:26;96489.47;;;17.85;75.79
64141;BME280;50436;50.618;7.932;2022-07-29T01:04:52;96484.13;;;17.79;76.50
64141;BME280;50436;50.618;7.932;2022-07-29T01:07:18;96477.41;;;17.77;76.81
64141;BME280;50436;50.618;7.932;2022-07-29T01:09:44;96483.13;;;17.75;76.34
64141;BME280;50436;50.618;7.932;2022-07-29T01:12:15;96484.13;;;17.79;76.32
64141;BME280;50436;50.618;7.932;2022-07-29T01:14:42;96485.53;;;17.77;75.74
64141;BME280;50436;50.618;7.932;2022-07-29T01:17:15;96483.94;;;17.76;76.40
64141;BME280;50436;50.618;7.932;2022-07-29T01:22:28;96469.44;;;17.86;75.38
64141;BME280;50436;50.618;7.932;2022-07-29T01:28:04;96476.00;;;17.79;75.47
64141;BME280;50436;50.618;7.932;2022-07-29T01:30:35;96479.72;;;17.65;76.52
64141;BME280;50436;50.618;7.932;2022-07-29T01:33:15;96468.88;;;17.65;77.98
64141;BME280;50436;50.618;7.932;2022-07-29T01:36:07;96463.41;;;17.70;77.29
64141;BME280;50436;50.618;7.932;2022-07-29T01:38:39;96462.34;;;17.71;77.63
64141;BME280;50436;50.618;7.932;2022-07-29T01:41:09;96459.28;;;17.77;76.69
64141;BME280;50436;50.618;7.932;2022-07-29T01:44:10;96443.22;;;17.81;77.91
64141;BME280;50436;50.618;7.932;2022-07-29T01:46:38;96447.84;;;17.80;77.00
64141;BME280;50436;50.618;7.932;2022-07-29T01:49:20;96443.22;;;17.81;77.82
64141;BME280;50436;50.618;7.932;2022-07-29T01:51:58;96445.94;;;17.81;76.74
64141;BME280;50436;50.618;7.932;2022-07-29T01:54:29;96427.53;;;17.83;76.14
64141;BME280;50436;50.618;7.932;2022-07-29T01:56:56;96428.22;;;17.89;77.15
64141;BME280;50436;50.618;7.932;2022-07-29T01:59:26;96424.72;;;17.88;76.03
64141;BME280;50436;50.618;7.932;2022-07-29T02:01:54;96423.13;;;17.87;77.59
64141;BME280;50436;50.618;7.932;2022-07-29T02:04:20;96421.69;;;17.76;78.04
64141;BME280;50436;50.618;7.932;2022-07-29T02:06:49;96427.91;;;17.76;78.65
64141;BME280;50436;50.618;7.932;2022-07-29T02:09:17;96423.13;;;17.68;78.71
64141;BME280;50436;50.618;7.932;2022-07-29T02:11:49;96418.38;;;17.60;79.79
64141;BME280;50436;50.618;7.932;2022-07-29T02:14:19;96419.75;;;17.58;80.18
64141;BME280;50436;50.618;7.932;2022-07-29T02:16:47;96424.72;;;17.50;80.40
64141;BME280;50436;50.618;7.932;2022-07-29T02:19:14;96425.63;;;17.46;79.76
64141;BME280;50436;50.618;7.932;2022-07-29T02:21:41;96412.97;;;17.41;80.60
64141;BME280;50436;50.618;7.932;2022-07-29T02:24:09;96412.47;;;17.39;81.16
64141;BME280;50436;50.618;7.932;2022-07-29T02:26:37;96410.56;;;17.40;81.43
64141;BME280;50436;50.618;7.932;2022-07-29T02:29:03;96402.69;;;17.43;81.54
64141;BME280;50436;50.618;7.932;2022-07-29T02:31:33;96404.56;;;17.43;82.48
64141;BME280;50436;50.618;7.932;2022-07-29T02:34:01;96389.97;;;17.44;83.56
64141;BME280;50436;50.618;7.932;2022-07-29T02:36:29;96394.84;;;17.42;84.48
64141;BME280;50436;50.618;7.932;2022-07-29T02:38:56;96392.22;;;17.37;84.21
64141;BME280;50436;50.618;7.932;2022-07-29T02:41:51;96389.78;;;17.35;85.53
64141;BME280;50436;50.618;7.932;2022-07-29T02:44:19;96386.69;;;17.28;85.08
64141;BME280;50436;50.618;7.932;2022-07-29T02:46:56;96383.53;;;17.21;85.49
64141;BME280;50436;50.618;7.932;2022-07-29T02:51:56;96385.25;;;17.12;86.96
64141;BME280;50436;50.618;7.932;2022-07-29T02:54:43;96375.09;;;17.04;89.82
64141;BME280;50436;50.618;7.932;2022-07-29T02:57:22;96374.59;;;17.02;90.04
64141;BME280;50436;50.618;7.932;2022-07-29T02:59:52;96377.25;;;17.07;88.75
64141;BME280;50436;50.618;7.932;2022-07-29T03:02:18;96375.91;;;17.04;89.57
64141;BME280;50436;50.618;7.932;2022-07-29T03:04:44;96381.97;;;16.96;89.73
64141;BME280;50436;50.618;7.932;2022-07-29T03:07:13;96385.56;;;16.91;90.41
64141;BME280;50436;50.618;7.932;2022-07-29T03:09:41;96382.84;;;16.91;89.53
64141;BME280;50436;50.618;7.932;2022-07-29T03:12:08;96381.75;;;16.92;89.85
64141;BME280;50436;50.618;7.932;2022-07-29T03:14:34;96379.03;;;16.92;89.49
64141;BME280;50436;50.618;7.932;2022-07-29T03:17:01;96377.00;;;16.84;89.98
64141;BME280;50436;50.618;7.932;2022-07-29T03:19:27;96383.53;;;16.78;89.37
64141;BME280;50436;50.618;7.932;2022-07-29T03:21:56;96389.53;;;16.75;89.72
64141;BME280;50436;50.618;7.932;2022-07-29T03:24:32;96391.31;;;16.61;90.64
64141;BME280;50436;50.618;7.932;2022-07-29T03:26:58;96394.06;;;16.56;90.63
64141;BME280;50436;50.618;7.932;2022-07-29T03:29:25;96395.28;;;16.44;91.54
64141;BME280;50436;50.618;7.932;2022-07-29T03:31:51;96397.25;;;16.34;93.12
64141;BME280;50436;50.618;7.932;2022-07-29T03:34:16;96384.47;;;16.21;92.60
64141;BME280;50436;50.618;7.932;2022-07-29T03:36:42;96392.03;;;16.19;92.43
64141;BME280;50436;50.618;7.932;2022-07-29T03:39:09;96386.72;;;16.08;93.54
64141;BME280;50436;50.618;7.932;2022-07-29T03:41:36;96393.84;;;15.99;93.97
64141;BME280;50436;50.618;7.932;2022-07-29T03:44:04;96395.84;;;15.88;94.86
64141;BME280;50436;50.618;7.932;2022-07-29T03:46:31;96387.25;;;15.81;95.48
64141;BME280;50436;50.618;7.932;2022-07-29T03:48:59;96384.13;;;15.69;96.35
64141;BME280;50436;50.618;7.932;2022-07-29T03:51:26;96383.41;;;15.53;97.21
64141;BME280;50436;50.618;7.932;2022-07-29T03:53:52;96380.50;;;15.45;97.85
64141;BME280;50436;50.618;7.932;2022-07-29T03:56:21;96385.38;;;15.43;97.61
64141;BME280;50436;50.618;7.932;2022-07-29T03:58:48;96385.13;;;15.39;97.73
64141;BME280;50436;50.618;7.932;2022-07-29T04:01:16;96378.41;;;15.37;98.04
64141;BME280;50436;50.618;7.932;2022-07-29T04:03:43;96386.25;;;15.33;98.56
64141;BME280;50436;50.618;7.932;2022-07-29T04:06:10;96386.53;;;15.31;98.06
64141;BME280;50436;50.618;7.932;2022-07-29T04:08:36;96399.75;;;15.28;98.48
64141;BME280;50436;50.618;7.932;2022-07-29T04:11:03;96394.09;;;15.24;98.12
64141;BME280;50436;50.618;7.932;2022-07-29T04:13:29;96394.69;;;15.21;99.22
64141;BME280;50436;50.618;7.932;2022-07-29T04:15:55;96396.84;;;15.19;99.55
64141;BME280;50436;50.618;7.932;2022-07-29T04:18:20;96404.94;;;15.19;99.39
64141;BME280;50436;50.618;7.932;2022-07-29T04:20:46;96392.78;;;15.22;97.87
64141;BME280;50436;50.618;7.932;2022-07-29T04:23:11;96382.84;;;15.17;100.00
64141;BME280;50436;50.618;7.932;2022-07-29T04:25:38;96394.47;;;15.13;100.00
64141;BME280;50436;50.618;7.932;2022-07-29T04:28:05;96389.63;;;15.10;100.00
64141;BME280;50436;50.618;7.932;2022-07-29T04:30:32;96397.44;;;15.11;99.82
64141;BME280;50436;50.618;7.932;2022-07-29T04:32:58;96401.69;;;15.17;99.85
64141;BME280;50436;50.618;7.932;2022-07-29T04:35:26;96399.25;;;15.21;99.12
64141;BME280;50436;50.618;7.932;2022-07-29T04:37:52;96396.81;;;15.24;100.00
64141;BME280;50436;50.618;7.932;2022-07-29T04:40:18;96404.88;;;15.29;98.80
64141;BME280;50436;50.618;7.932;2022-07-29T04:42:43;96399.38;;;15.45;98.56
64141;BME280;50436;50.618;7.932;2022-07-29T04:45:09;96389.28;;;15.60;97.51
64141;BME280;50436;50.618;7.932;2022-07-29T04:47:34;96395.91;;;15.78;96.87
64141;BME280;50436;50.618;7.932;2022-07-29T04:50:00;96397.13;;;15.96;95.13
64141;BME280;50436;50.618;7.932;2022-07-29T04:52:25;96392.13;;;16.08;95.43
64141;BME280;50436;50.618;7.932;2022-07-29T04:54:51;96391.78;;;16.15;95.61
64141;BME280;50436;50.618;7.932;2022-07-29T04:57:16;96396.06;;;16.21;95.30
64141;BME280;50436;50.618;7.932;2022-07-29T04:59:42;96398.69;;;16.26;95.80
64141;BME280;50436;50.618;7.932;2022-07-29T05:02:07;96395.38;;;16.34;95.26
64141;BME280;50436;50.618;7.932;2022-07-29T05:04:33;96400.50;;;16.36;95.32
64141;BME280;50436;50.618;7.932;2022-07-29T05:06:58;96395.31;;;16.39;94.89
64141;BME280;50436;50.618;7.932;2022-07-29T05:09:24;96404.19;;;16.45;94.90
64141;BME280;50436;50.618;7.932;2022-07-29T05:11:49;96398.66;;;16.55;94.72
64141;BME280;50436;50.618;7.932;2022-07-29T05:14:14;96403.72;;;16.62;94.38
64141;BME280;50436;50.618;7.932;2022-07-29T05:16:40;96400.97;;;16.67;94.75
64141;BME280;50436;50.618;7.932;2022-07-29T05:19:06;96402.47;;;16.78;92.98
64141;BME280;50436;50.618;7.932;2022-07-29T05:21:31;96415.63;;;16.85;93.33
64141;BME280;50436;50.618;7.932;2022-07-29T05:23:57;96402.78;;;16.95;93.48
64141;BME280;50436;50.618;7.932;2022-07-29T05:26:23;96406.22;;;17.01;92.21
64141;BME280;50436;50.618;7.932;2022-07-29T05:28:48;96412.22;;;17.17;92.68
64141;BME280;50436;50.618;7.932;2022-07-29T05:31:14;96403.16;;;17.26;90.78
64141;BME280;50436;50.618;7.932;2022-07-29T05:33:40;96421.06;;;17.41;91.33
64141;BME280;50436;50.618;7.932;2022-07-29T05:36:06;96421.75;;;17.52;89.90
64141;BME280;50436;50.618;7.932;2022-07-29T05:38:33;96427.31;;;17.61;89.65
64141;BME280;50436;50.618;7.932;2022-07-29T05:40:59;96420.88;;;17.75;89.11
64141;BME280;50436;50.618;7.932;2022-07-29T05:43:26;96424.34;;;17.95;87.96
64141;BME280;50436;50.618;7.932;2022-07-29T05:45:52;96421.69;;;18.08;88.10
64141;BME280;50436;50.618;7.932;2022-07-29T05:48:17;96435.69;;;18.29;86.40
64141;BME280;50436;50.618;7.932;2022-07-29T05:50:42;96434.88;;;18.43;86.45
64141;BME280;50436;50.618;7.932;2022-07-29T05:53:13;96439.94;;;18.63;86.50
64141;BME280;50436;50.618;7.932;2022-07-29T05:55:38;96441.09;;;18.76;85.51
64141;BME280;50436;50.618;7.932;2022-07-29T05:58:07;96453.31;;;18.87;85.02
64141;BME280;50436;50.618;7.932;2022-07-29T06:00:32;96453.19;;;19.06;85.04
64141;BME280;50436;50.618;7.932;2022-07-29T06:02:58;96450.31;;;19.02;86.05
64141;BME280;50436;50.618;7.932;2022-07-29T06:05:23;96460.75;;;19.09;85.57
64141;BME280;50436;50.618;7.932;2022-07-29T06:07:49;96457.63;;;19.02;86.18
64141;BME280;50436;50.618;7.932;2022-07-29T06:10:14;96457.31;;;18.89;86.80
64141;BME280;50436;50.618;7.932;2022-07-29T06:12:39;96457.22;;;18.81;87.08
64141;BME280;50436;50.618;7.932;2022-07-29T06:15:05;96459.66;;;18.69;88.03
64141;BME280;50436;50.618;7.932;2022-07-29T06:17:31;96467.72;;;18.55;87.83
64141;BME280;50436;50.618;7.932;2022-07-29T06:19:57;96464.59;;;18.48;88.67
64141;BME280;50436;50.618;7.932;2022-07-29T06:22:22;96467.91;;;18.58;89.80
64141;BME280;50436;50.618;7.932;2022-07-29T06:24:47;96464.09;;;18.59;90.72
64141;BME280;50436;50.618;7.932;2022-07-29T06:27:13;96458.09;;;18.62;89.73
64141;BME280;50436;50.618;7.932;2022-07-29T06:29:39;96466.81;;;18.59;89.48
64141;BME280;50436;50.618;7.932;2022-07-29T06:32:05;96461.66;;;18.77;89.59
64141;BME280;50436;50.618;7.932;2022-07-29T06:34:32;96456.94;;;18.96;87.80
64141;BME280;50436;50.618;7.932;2022-07-29T06:36:58;96462.25;;;19.15;88.43
64141;BME280;50436;50.618;7.932;2022-07-29T06:39:23;96461.81;;;19.35;87.32
64141;BME280;50436;50.618;7.932;2022-07-29T06:41:49;96457.84;;;19.55;87.20
64141;BME280;50436;50.618;7.932;2022-07-29T06:44:16;96468.44;;;19.57;86.77
64141;BME280;50436;50.618;7.932;2022-07-29T06:46:42;96475.59;;;19.39;87.37
64141;BME280;50436;50.618;7.932;2022-07-29T06:49:09;96476.47;;;19.34;88.33
64141;BME280;50436;50.618;7.932;2022-07-29T06:51:35;96480.31;;;19.33;88.58
64141;BME280;50436;50.618;7.932;2022-07-29T06:54:01;96474.13;;;19.55;89.65
64141;BME280;50436;50.618;7.932;2022-07-29T06:56:29;96477.06;;;19.59;88.33
64141;BME280;50436;50.618;7.932;2022-07-29T06:58:55;96481.44;;;19.68;87.60
64141;BME280;50436;50.618;7.932;2022-07-29T07:01:20;96488.22;;;19.57;88.30
64141;BME280;50436;50.618;7.932;2022-07-29T07:03:46;96483.72;;;19.39;88.88
64141;BME280;50436;50.618;7.932;2022-07-29T07:06:11;96494.09;;;19.23;88.79
64141;BME280;50436;50.618;7.932;2022-07-29T07:08:37;96501.53;;;19.17;88.96
64141;BME280;50436;50.618;7.932;2022-07-29T07:11:02;96497.09;;;19.21;89.87
64141;BME280;50436;50.618;7.932;2022-07-29T07:13:29;96501.88;;;19.52;89.28
64141;BME280;50436;50.618;7.932;2022-07-29T07:16:00;96508.59;;;19.68;87.39
64141;BME280;50436;50.618;7.932;2022-07-29T07:18:26;96503.72;;;19.93;88.06
64141;BME280;50436;50.618;7.932;2022-07-29T07:20:52;96503.84;;;20.10;86.23
64141;BME280;50436;50.618;7.932;2022-07-29T07:23:17;96496.44;;;20.24;87.44
64141;BME280;50436;50.618;7.932;2022-07-29T07:25:43;96494.34;;;20.44;84.59
64141;BME280;50436;50.618;7.932;2022-07-29T07:28:08;96492.06;;;20.59;84.43
64141;BME280;50436;50.618;7.932;2022-07-29T07:30:34;96494.19;;;20.71;83.77
64141;BME280;50436;50.618;7.932;2022-07-29T07:33:00;96497.22;;;20.70;84.91
64141;BME280;50436;50.618;7.932;2022-07-29T07:35:25;96499.00;;;20.74;84.46
64141;BME280;50436;50.618;7.932;2022-07-29T07:37:53;96498.69;;;20.76;84.51
64141;BME280;50436;50.618;7.932;2022-07-29T07:40:19;96496.28;;;20.74;85.33
64141;BME280;50436;50.618;7.932;2022-07-29T07:42:44;96496.50;;;20.86;83.86
64141;BME280;50436;50.618;7.932;2022-07-29T07:45:11;96501.00;;;20.91;83.60
64141;BME280;50436;50.618;7.932;2022-07-29T07:47:38;96499.31;;;21.04;85.58
64141;BME280;50436;50.618;7.932;2022-07-29T07:50:05;96498.41;;;21.17;83.33
64141;BME280;50436;50.618;7.932;2022-07-29T07:52:32;96496.53;;;21.35;82.83
64141;BME280;50436;50.618;7.932;2022-07-29T07:54:58;96496.22;;;21.36;83.21
64141;BME280;50436;50.618;7.932;2022-07-29T07:57:23;96500.56;;;20.98;85.24
64141;BME280;50436;50.618;7.932;2022-07-29T07:59:49;96494.06;;;20.76;84.13
64141;BME280;50436;50.618;7.932;2022-07-29T08:02:14;96494.75;;;20.91;83.55
64141;BME280;50436;50.618;7.932;2022-07-29T08:04:40;96508.91;;;21.01;82.57
64141;BME280;50436;50.618;7.932;2022-07-29T08:07:06;96500.19;;;20.91;82.95
64141;BME280;50436;50.618;7.932;2022-07-29T08:09:33;96511.06;;;20.91;82.65
64141;BME280;50436;50.618;7.932;2022-07-29T08:12:00;96510.63;;;20.97;84.18
64141;BME280;50436;50.618;7.932;2022-07-29T08:14:31;96518.16;;;21.00;83.51
64141;BME280;50436;50.618;7.932;2022-07-29T08:16:57;96514.97;;;21.07;83.05
64141;BME280;50436;50.618;7.932;2022-07-29T08:19:22;96508.00;;;21.23;83.53
64141;BME280;50436;50.618;7.932;2022-07-29T08:21:48;96510.50;;;21.51;81.24
64141;BME280;50436;50.618;7.932;2022-07-29T08:24:13;96515.66;;;21.69;81.56
64141;BME280;50436;50.618;7.932;2022-07-29T08:26:57;96510.06;;;21.75;80.68
64141;BME280;50436;50.618;7.932;2022-07-29T08:29:23;96509.94;;;21.88;78.63
64141;BME280;50436;50.618;7.932;2022-07-29T08:31:48;96500.31;;;21.91;80.36
64141;BME280;50436;50.618;7.932;2022-07-29T08:34:14;96509.75;;;21.85;79.51
64141;BME280;50436;50.618;7.932;2022-07-29T08:36:39;96510.91;;;22.10;78.83
64141;BME280;50436;50.618;7.932;2022-07-29T08:39:05;96513.25;;;22.63;76.36
64141;BME280;50436;50.618;7.932;2022-07-29T08:41:30;96511.09;;;22.95;77.57
64141;BME280;50436;50.618;7.932;2022-07-29T08:43:56;96514.56;;;23.42;74.69
64141;BME280;50436;50.618;7.932;2022-07-29T08:46:22;96513.34;;;23.69;72.70
64141;BME280;50436;50.618;7.932;2022-07-29T08:48:47;96515.22;;;23.98;68.70
64141;BME280;50436;50.618;7.932;2022-07-29T08:51:20;96515.41;;;23.93;66.88
64141;BME280;50436;50.618;7.932;2022-07-29T08:53:47;96512.63;;;23.51;63.95
64141;BME280;50436;50.618;7.932;2022-07-29T08:56:18;96513.56;;;24.06;64.00
64141;BME280;50436;50.618;7.932;2022-07-29T08:58:44;96511.94;;;24.26;69.37
64141;BME280;50436;50.618;7.932;2022-07-29T09:01:10;96508.84;;;24.48;66.79
64141;BME280;50436;50.618;7.932;2022-07-29T09:03:37;96507.34;;;24.71;63.43
64141;BME280;50436;50.618;7.932;2022-07-29T09:06:05;96510.44;;;24.49;57.81
64141;BME280;50436;50.618;7.932;2022-07-29T09:08:31;96502.66;;;24.18;60.94
64141;BME280;50436;50.618;7.932;2022-07-29T09:10:57;96505.31;;;24.27;65.61
64141;BME280;50436;50.618;7.932;2022-07-29T09:13:25;96507.59;;;24.45;64.50
64141;BME280;50436;50.618;7.932;2022-07-29T09:15:51;96493.63;;;24.59;64.73
64141;BME280;50436;50.618;7.932;2022-07-29T09:18:42;96499.56;;;24.73;62.78
64141;BME280;50436;50.618;7.932;2022-07-29T09:21:10;96495.13;;;24.69;61.61
64141;BME280;50436;50.618;7.932;2022-07-29T09:24:11;96500.97;;;24.80;61.51
64141;BME280;50436;50.618;7.932;2022-07-29T09:26:43;96505.16;;;23.90;66.41
64141;BME280;50436;50.618;7.932;2022-07-29T09:29:11;96501.78;;;23.63;68.80
64141;BME280;50436;50.618;7.932;2022-07-29T09:31:39;96499.63;;;23.78;71.84
64141;BME280;50436;50.618;7.932;2022-07-29T09:34:05;96499.78;;;23.73;70.12
64141;BME280;50436;50.618;7.932;2022-07-29T09:36:45;96506.13;;;23.65;70.39
64141;BME280;50436;50.618;7.932;2022-07-29T09:39:12;96501.63;;;23.89;69.41
64141;BME280;50436;50.618;7.932;2022-07-29T09:41:49;96498.63;;;24.57;67.22
64141;BME280;50436;50.618;7.932;2022-07-29T09:44:14;96485.94;;;24.98;64.04
64141;BME280;50436;50.618;7.932;2022-07-29T09:46:52;96489.56;;;24.90;67.34
64141;BME280;50436;50.618;7.932;2022-07-29T09:49:17;96482.56;;;25.50;63.63
64141;BME280;50436;50.618;7.932;2022-07-29T09:51:43;96491.47;;;25.71;61.20
64141;BME280;50436;50.618;7.932;2022-07-29T09:54:27;96484.81;;;25.85;58.28
64141;BME280;50436;50.618;7.932;2022-07-29T09:56:54;96488.34;;;26.25;56.00
64141;BME280;50436;50.618;7.932;2022-07-29T09:59:19;96484.38;;;26.51;55.50
64141;BME280;50436;50.618;7.932;2022-07-29T10:01:48;96480.63;;;26.43;56.07
64141;BME280;50436;50.618;7.932;2022-07-29T10:04:15;96485.22;;;26.83;56.34
64141;BME280;50436;50.618;7.932;2022-07-29T10:09:22;96484.06;;;26.84;54.72
64141;BME280;50436;50.618;7.932;2022-07-29T10:12:11;96479.47;;;27.35;49.13
64141;BME280;50436;50.618;7.932;2022-07-29T10:14:42;96481.66;;;27.61;48.05
64141;BME280;50436;50.618;7.932;2022-07-29T10:17:09;96490.25;;;27.75;48.97
64141;BME280;50436;50.618;7.932;2022-07-29T10:19:37;96481.69;;;27.96;46.10
64141;BME280;50436;50.618;7.932;2022-07-29T10:22:07;96486.69;;;27.75;45.27
64141;BME280;50436;50.618;7.932;2022-07-29T10:24:33;96481.63;;;27.77;48.46
64141;BME280;50436;50.618;7.932;2022-07-29T10:27:02;96480.78;;;27.92;45.39
64141;BME280;50436;50.618;7.932;2022-07-29T10:29:33;96477.56;;;28.25;47.10
64141;BME280;50436;50.618;7.932;2022-07-29T10:35:08;96469.53;;;28.98;42.02
64141;BME280;50436;50.618;7.932;2022-07-29T10:37:52;96475.66;;;29.37;41.18
64141;BME280;50436;50.618;7.932;2022-07-29T10:43:28;96476.13;;;29.16;41.45
64141;BME280;50436;50.618;7.932;2022-07-29T10:45:59;96469.03;;;29.15;39.80
64141;BME280;50436;50.618;7.932;2022-07-29T10:48:25;96471.78;;;28.92;42.97
64141;BME280;50436;50.618;7.932;2022-07-29T10:50:55;96473.06;;;28.79;43.38
64141;BME280;50436;50.618;7.932;2022-07-29T10:53:23;96469.28;;;28.87;44.63
64141;BME280;50436;50.618;7.932;2022-07-29T10:55:51;96465.63;;;29.75;41.81
64141;BME280;50436;50.618;7.932;2022-07-29T10:58:21;96463.59;;;29.98;39.90
64141;BME280;50436;50.618;7.932;2022-07-29T11:00:51;96464.16;;;29.31;42.60
64141;BME280;50436;50.618;7.932;2022-07-29T11:06:07;96464.00;;;29.47;41.34
64141;BME280;50436;50.618;7.932;2022-07-29T11:08:33;96465.28;;;29.27;40.01
64141;BME280;50436;50.618;7.932;2022-07-29T11:13:52;96459.78;;;29.80;39.37
64141;BME280;50436;50.618;7.932;2022-07-29T11:16:21;96462.56;;;30.10;36.95
64141;BME280;50436;50.618;7.932;2022-07-29T11:21:39;96452.50;;;32.09;35.61
64141;BME280;50436;50.618;7.932;2022-07-29T11:24:19;96448.78;;;33.81;31.70
64141;BME280;50436;50.618;7.932;2022-07-29T11:29:35;96447.34;;;35.20;28.39
64141;BME280;50436;50.618;7.932;2022-07-29T11:32:12;96445.97;;;35.80;26.58
64141;BME280;50436;50.618;7.932;2022-07-29T11:34:40;96442.94;;;36.69;26.31
64141;BME280;50436;50.618;7.932;2022-07-29T11:39:36;96438.03;;;37.78;25.17
64141;BME280;50436;50.618;7.932;2022-07-29T11:45:13;96432.25;;;40.53;21.39
64141;BME280;50436;50.618;7.932;2022-07-29T11:47:41;96444.19;;;42.02;19.94
64141;BME280;50436;50.618;7.932;2022-07-29T11:50:10;96438.78;;;42.74;20.02
64141;BME280;50436;50.618;7.932;2022-07-29T11:52:41;96437.69;;;40.98;19.60
64141;BME280;50436;50.618;7.932;2022-07-29T11:55:18;96434.34;;;37.61;23.69
64141;BME280;50436;50.618;7.932;2022-07-29T11:57:51;96436.09;;;35.34;26.12
64141;BME280;50436;50.618;7.932;2022-07-29T12:00:28;96432.03;;;37.56;23.62
64141;BME280;50436;50.618;7.932;2022-07-29T12:02:55;96430.50;;;41.10;21.11
64141;BME280;50436;50.618;7.932;2022-07-29T12:10:34;96434.88;;;34.02;28.48
64141;BME280;50436;50.618;7.932;2022-07-29T12:13:02;96440.91;;;32.97;29.59
64141;BME280;50436;50.618;7.932;2022-07-29T12:15:28;96438.28;;;32.14;31.00
64141;BME280;50436;50.618;7.932;2022-07-29T12:17:54;96433.38;;;31.82;31.69
64141;BME280;50436;50.618;7.932;2022-07-29T12:22:49;96435.66;;;32.39;30.89
64141;BME280;50436;50.618;7.932;2022-07-29T12:25:15;96430.91;;;32.43;31.11
64141;BME280;50436;50.618;7.932;2022-07-29T12:27:42;96434.16;;;32.77;30.60
64141;BME280;50436;50.618;7.932;2022-07-29T12:30:16;96421.47;;;33.65;29.44
64141;BME280;50436;50.618;7.932;2022-07-29T12:32:47;96422.66;;;33.64;28.88
64141;BME280;50436;50.618;7.932;2022-07-29T12:35:18;96420.00;;;35.93;25.86
64141;BME280;50436;50.618;7.932;2022-07-29T12:37:46;96414.88;;;39.42;21.79
64141;BME280;50436;50.618;7.932;2022-07-29T12:40:15;96409.88;;;41.04;20.04
64141;BME280;50436;50.618;7.932;2022-07-29T12:43:05;96413.25;;;44.04;17.74
64141;BME280;50436;50.618;7.932;2022-07-29T12:45:31;96409.03;;;43.53;18.31
64141;BME280;50436;50.618;7.932;2022-07-29T12:47:57;96410.41;;;45.01;16.63
64141;BME280;50436;50.618;7.932;2022-07-29T12:50:22;96409.22;;;44.23;17.06
64141;BME280;50436;50.618;7.932;2022-07-29T12:52:48;96401.75;;;46.74;15.80
64141;BME280;50436;50.618;7.932;2022-07-29T12:55:14;96401.41;;;45.60;16.45
64141;BME280;50436;50.618;7.932;2022-07-29T12:57:47;96409.47;;;39.02;20.86
64141;BME280;50436;50.618;7.932;2022-07-29T13:00:14;96415.75;;;36.19;24.10
64141;BME280;50436;50.618;7.932;2022-07-29T13:02:40;96408.75;;;34.73;26.66
64141;BME280;50436;50.618;7.932;2022-07-29T13:05:07;96417.97;;;33.01;28.29
64141;BME280;50436;50.618;7.932;2022-07-29T13:07:34;96408.41;;;33.30;28.15
64141;BME280;50436;50.618;7.932;2022-07-29T13:10:19;96409.16;;;32.59;28.70
64141;BME280;50436;50.618;7.932;2022-07-29T13:13:05;96416.09;;;32.00;30.86
64141;BME280;50436;50.618;7.932;2022-07-29T13:15:38;96409.94;;;32.49;30.19
64141;BME280;50436;50.618;7.932;2022-07-29T13:18:04;96416.38;;;33.03;29.36
64141;BME280;50436;50.618;7.932;2022-07-29T13:20:31;96415.97;;;33.01;29.67
64141;BME280;50436;50.618;7.932;2022-07-29T13:22:58;96411.44;;;34.84;27.05
64141;BME280;50436;50.618;7.932;2022-07-29T13:25:26;96404.66;;;34.88;25.90
64141;BME280;50436;50.618;7.932;2022-07-29T13:27:52;96402.34;;;34.10;28.08
64141;BME280;50436;50.618;7.932;2022-07-29T13:30:20;96401.72;;;33.31;28.72
64141;BME280;50436;50.618;7.932;2022-07-29T13:32:47;96402.09;;;31.71;30.55
64141;BME280;50436;50.618;7.932;2022-07-29T13:35:12;96412.72;;;31.66;31.31
64141;BME280;50436;50.618;7.932;2022-07-29T13:37:39;96407.16;;;31.55;31.05
64141;BME280;50436;50.618;7.932;2022-07-29T13:40:09;96407.84;;;31.38;31.95
64141;BME280;50436;50.618;7.932;2022-07-29T13:42:34;96406.63;;;30.46;33.08
64141;BME280;50436;50.618;7.932;2022-07-29T13:45:00;96407.72;;;30.75;33.46
64141;BME280;50436;50.618;7.932;2022-07-29T13:47:26;96409.97;;;31.07;33.02